Time;durP1;ratioP1;P1;durP2;ratioP2;P2;SDS_P1;SDS_P2;PMS_P1;PMS_P2;Temp;Humidity;BMP_temperature;BMP_pressure;BME280_temperature;BME280_humidity;BME280_pressure;Samples;Min_cycle;Max_cycle;Signal;HPM_P1;HPM_P2
2022/12/30 00:00:51;;;;;;;12.13;3.13;;;;;;;5.28;100.00;100799.69;5073946;28;20023;-51
2022/12/30 00:03:19;;;;;;;15.57;2.95;;;;;;;5.27;100.00;100797.16;5074087;28;20049;-53
2022/12/30 00:05:47;;;;;;;14.77;2.75;;;;;;;5.20;100.00;100796.59;5073600;28;20048;-51
2022/12/30 00:10:57;;;;;;;15.73;2.37;;;;;;;5.19;100.00;100797.50;5069413;28;20531;-51
2022/12/30 00:33:08;;;;;;;13.32;2.40;;;;;;;5.06;100.00;100818.88;5074161;28;20078;-58
2022/12/30 00:35:38;;;;;;;10.23;1.95;;;;;;;5.03;100.00;100818.16;5073514;28;20435;-58
2022/12/30 00:38:07;;;;;;;9.95;2.33;;;;;;;5.02;100.00;100825.13;5073614;28;20499;-58
2022/12/30 00:40:37;;;;;;;10.43;2.33;;;;;;;4.99;100.00;100821.78;5073569;28;20049;-58
2022/12/30 00:43:09;;;;;;;9.38;2.00;;;;;;;4.98;100.00;100826.19;5073508;28;20048;-58
2022/12/30 00:45:39;;;;;;;;;;;;;;;4.91;100.00;100822.97;5073638;28;20052;-58
2022/12/30 00:56:25;;;;;;;13.50;1.67;;;;;;;4.88;100.00;100823.09;5072777;28;20052;-58
2022/12/30 00:58:53;;;;;;;11.65;2.25;;;;;;;4.85;100.00;100825.84;5070910;28;20384;-57
2022/12/30 01:01:22;;;;;;;10.75;2.00;;;;;;;4.84;100.00;100818.06;5070927;28;20443;-58
2022/12/30 01:03:52;;;;;;;11.40;2.92;;;;;;;4.85;100.00;100825.84;5073146;28;20055;-58
2022/12/30 01:06:20;;;;;;;11.82;2.08;;;;;;;4.83;100.00;100822.44;5071698;28;20495;-58
2022/12/30 01:08:48;;;;;;;14.82;2.03;;;;;;;4.80;100.00;100822.59;5072862;28;20054;-58
2022/12/30 01:11:16;;;;;;;11.60;2.42;;;;;;;4.82;100.00;100825.13;5072833;28;20537;-58
2022/12/30 01:13:45;;;;;;;10.93;2.38;;;;;;;4.81;100.00;100839.06;5070859;28;20143;-58
2022/12/30 01:16:15;;;;;;;10.10;1.92;;;;;;;4.77;100.00;100838.31;5071556;28;20083;-57
2022/12/30 01:18:44;;;;;;;11.77;2.00;;;;;;;4.77;100.00;100838.31;5072945;28;20398;-57
2022/12/30 01:21:16;;;;;;;14.23;2.77;;;;;;;4.74;100.00;100841.94;5071197;28;20424;-57
2022/12/30 01:23:44;;;;;;;9.18;2.28;;;;;;;4.74;100.00;100848.88;5072934;28;20044;-57
2022/12/30 01:26:13;;;;;;;13.45;2.20;;;;;;;4.71;100.00;100846.41;5072927;28;20054;-58
2022/12/30 01:28:41;;;;;;;14.45;2.58;;;;;;;4.69;100.00;100845.59;5072933;28;20128;-58
2022/12/30 01:31:11;;;;;;;15.40;2.70;;;;;;;4.70;100.00;100849.91;5072754;28;20067;-57
2022/12/30 01:33:39;;;;;;;8.82;2.55;;;;;;;4.73;100.00;100853.25;5071568;28;20052;-57
2022/12/30 01:36:08;;;;;;;7.40;2.00;;;;;;;4.72;100.00;100866.34;5070907;28;20061;-57
2022/12/30 01:38:37;;;;;;;9.15;1.92;;;;;;;4.73;100.00;100873.22;5072561;28;20049;-57
2022/12/30 01:41:05;;;;;;;9.63;1.92;;;;;;;4.70;100.00;100874.22;5072691;28;20569;-58
2022/12/30 01:43:43;;;;;;;11.32;2.17;;;;;;;4.68;100.00;100875.19;5072665;28;20055;-57
2022/12/30 01:46:16;;;;;;;8.32;1.65;;;;;;;4.69;100.00;100887.28;5072615;28;20063;-57
2022/12/30 01:48:45;;;;;;;8.75;1.88;;;;;;;4.72;100.00;100884.59;5072447;28;20448;-58
2022/12/30 01:51:19;;;;;;;8.23;1.83;;;;;;;4.65;100.00;100883.09;5070237;28;20052;-58
2022/12/30 01:53:52;;;;;;;9.98;1.98;;;;;;;4.63;100.00;100885.78;5070869;28;20052;-57
2022/12/30 01:56:27;;;;;;;9.93;2.00;;;;;;;4.63;100.00;100887.56;5072722;28;20040;-58
2022/12/30 01:59:00;;;;;;;7.18;1.70;;;;;;;4.61;100.00;100895.44;5072551;28;20071;-57
2022/12/30 02:01:28;;;;;;;8.20;1.88;;;;;;;4.61;100.00;100889.34;5072244;28;20393;-58
2022/12/30 02:04:01;;;;;;;10.98;2.30;;;;;;;4.55;100.00;100880.03;5072631;28;20051;-57
2022/12/30 02:06:40;;;;;;;9.75;1.80;;;;;;;4.57;100.00;100888.66;5071339;28;20053;-58
2022/12/30 02:09:10;;;;;;;14.15;2.47;;;;;;;4.59;100.00;100888.56;5070262;28;20049;-57
2022/12/30 02:11:38;;;;;;;15.10;2.20;;;;;;;4.60;100.00;100887.69;5071565;28;20043;-57
2022/12/30 02:14:07;;;;;;;11.30;2.15;;;;;;;4.59;100.00;100884.19;5071522;28;20127;-57
2022/12/30 02:16:51;;;;;;;16.98;2.42;;;;;;;4.59;100.00;100885.97;5068221;28;20053;-57
2022/12/30 02:19:50;;;;;;;5.47;1.58;;;;;;;4.55;100.00;100883.50;5070596;28;20072;-57
2022/12/30 02:22:32;;;;;;;17.42;2.80;;;;;;;4.52;100.00;100880.16;5072171;28;20055;-57
2022/12/30 02:25:46;;;;;;;10.13;2.28;;;;;;;4.50;100.00;100867.19;5069954;28;20503;-57
2022/12/30 02:29:04;;;;;;;16.45;2.75;;;;;;;4.50;100.00;100864.59;5010064;28;20050;-57
2022/12/30 02:31:46;;;;;;;11.23;1.98;;;;;;;4.51;100.00;100862.81;4987236;28;20066;-57
2022/12/30 02:34:24;;;;;;;15.23;2.33;;;;;;;4.56;100.00;100861.72;5075071;28;20045;-57
2022/12/30 02:37:03;;;;;;;15.10;2.70;;;;;;;4.55;100.00;100862.66;5075969;28;20054;-57
2022/12/30 02:39:37;;;;;;;15.57;2.88;;;;;;;4.54;100.00;100865.28;5075867;28;20086;-57
2022/12/30 02:44:58;;;;;;;13.63;2.45;;;;;;;4.51;100.00;100853.28;5075697;28;20518;-57
2022/12/30 02:47:36;;;;;;;17.13;3.22;;;;;;;4.51;100.00;100862.81;5075499;28;20056;-57
2022/12/30 02:52:54;;;;;;;11.15;1.98;;;;;;;4.48;100.00;100849.94;5075593;28;20045;-57
2022/12/30 02:55:22;;;;;;;13.30;2.10;;;;;;;4.44;100.00;100836.16;5074195;28;20064;-57
2022/12/30 02:57:51;;;;;;;10.95;2.15;;;;;;;4.49;100.00;100842.06;5075378;28;20040;-57
2022/12/30 03:06:47;;;;;;;13.45;2.60;;;;;;;4.47;100.00;100848.22;5075050;28;20052;-58
2022/12/30 03:09:25;;;;;;;17.77;2.42;;;;;;;4.50;100.00;100840.28;5074470;28;20061;-57
2022/12/30 03:11:58;;;;;;;17.83;2.47;;;;;;;4.46;100.00;100834.38;5073082;28;20467;-57
2022/12/30 03:14:32;;;;;;;13.73;2.00;;;;;;;4.47;100.00;100841.28;5072889;28;20056;-57
2022/12/30 03:17:05;;;;;;;11.43;2.30;;;;;;;4.49;100.00;100842.06;5074902;28;20098;-57
2022/12/30 03:19:39;;;;;;;11.55;1.95;;;;;;;4.45;100.00;100844.84;5073617;28;20476;-57
2022/12/30 03:27:02;;;;;;;14.95;2.17;;;;;;;4.41;100.00;100841.50;5072426;28;20044;-57
2022/12/30 03:27:49;;;;;;;15.45;2.45;;;;;;;4.45;100.00;100837.88;5074841;28;20487;-57
2022/12/30 03:30:18;;;;;;;15.23;2.42;;;;;;;4.43;100.00;100842.31;5073275;28;20048;-56
2022/12/30 03:32:47;;;;;;;16.50;2.63;;;;;;;4.39;100.00;100838.09;5071160;28;20063;-57
2022/12/30 03:35:18;;;;;;;11.18;2.70;;;;;;;4.40;100.00;100842.41;5074586;28;20056;-57
2022/12/30 03:37:50;;;;;;;19.10;3.20;;;;;;;4.36;100.00;100844.31;5074689;28;20055;-57
2022/12/30 03:40:25;;;;;;;12.57;2.58;;;;;;;4.35;100.00;100842.59;5074725;28;20045;-57
2022/12/30 03:42:54;;;;;;;9.20;2.42;;;;;;;4.33;100.00;100847.00;5072186;28;20109;-57
2022/12/30 03:45:23;;;;;;;12.13;2.50;;;;;;;4.28;100.00;100851.56;5071714;28;20062;-57
2022/12/30 03:47:51;;;;;;;11.98;2.40;;;;;;;4.26;100.00;100849.94;5074352;28;20049;-56
2022/12/30 03:50:21;;;;;;;11.95;2.60;;;;;;;4.22;100.00;100857.84;5074193;28;20466;-57
2022/12/30 03:52:49;;;;;;;13.82;2.25;;;;;;;4.23;100.00;100864.75;5070663;28;20048;-57
2022/12/30 03:55:17;;;;;;;12.63;2.13;;;;;;;4.20;100.00;100864.88;5072974;28;20049;-57
2022/12/30 03:57:46;;;;;;;20.55;5.25;;;;;;;4.17;100.00;100865.00;5072694;28;20052;-57
2022/12/30 04:00:14;;;;;;;10.13;2.25;;;;;;;4.13;100.00;100857.34;5074276;28;20102;-57
2022/12/30 04:02:42;;;;;;;10.70;2.30;;;;;;;4.11;100.00;100856.56;5074282;28;20135;-57
2022/12/30 04:05:11;;;;;;;13.38;2.67;;;;;;;4.04;100.00;100853.34;5074210;28;20503;-57
2022/12/30 04:07:41;;;;;;;14.15;2.70;;;;;;;3.96;100.00;100868.41;5073549;28;20075;-57
2022/12/30 04:10:09;;;;;;;14.52;2.55;;;;;;;3.95;100.00;100853.69;5073524;28;20437;-57
2022/12/30 04:12:37;;;;;;;16.92;2.85;;;;;;;3.92;100.00;100857.25;5073865;28;20040;-56
2022/12/30 04:15:06;;;;;;;9.90;2.45;;;;;;;3.82;100.00;100856.75;5074161;28;20102;-57
2022/12/30 04:17:35;;;;;;;15.15;2.40;;;;;;;3.82;100.00;100861.94;5073824;28;20076;-57
2022/12/30 04:20:03;;;;;;;13.23;2.50;;;;;;;3.83;100.00;100863.66;5072983;28;20048;-57
2022/12/30 04:22:32;;;;;;;13.57;2.50;;;;;;;3.83;100.00;100861.03;5071298;28;20044;-57
2022/12/30 04:25:01;;;;;;;11.07;2.45;;;;;;;3.80;100.00;100855.94;5073529;28;20041;-57
2022/12/30 04:27:32;;;;;;;12.77;2.45;;;;;;;3.67;100.00;100852.94;5072080;28;20072;-57
2022/12/30 04:30:01;;;;;;;13.50;2.65;;;;;;;3.74;100.00;100858.78;5071517;28;20123;-57
2022/12/30 04:32:29;;;;;;;17.08;2.40;;;;;;;3.76;100.00;100862.16;5071482;28;20093;-57
2022/12/30 04:34:57;;;;;;;11.90;2.53;;;;;;;3.74;100.00;100850.97;5073879;28;20495;-57
2022/12/30 04:37:25;;;;;;;13.50;2.92;;;;;;;3.71;100.00;100851.09;5073832;28;20484;-56
2022/12/30 04:39:53;;;;;;;13.52;3.58;;;;;;;3.62;100.00;100856.63;5073447;28;20424;-57
2022/12/30 04:42:25;;;;;;;15.63;2.42;;;;;;;3.64;100.00;100860.00;5073403;28;20478;-57
2022/12/30 04:44:54;;;;;;;12.75;2.65;;;;;;;3.66;100.00;100860.81;5073208;28;20056;-57
2022/12/30 04:47:22;;;;;;;16.33;3.22;;;;;;;3.62;100.00;100857.47;5073054;28;20062;-57
2022/12/30 04:49:50;;;;;;;15.55;2.78;;;;;;;3.60;100.00;100856.69;5073439;28;20076;-57
2022/12/30 04:52:18;;;;;;;9.38;2.92;;;;;;;3.59;100.00;100856.75;5073284;28;20438;-57
2022/12/30 04:54:46;;;;;;;11.43;3.08;;;;;;;3.56;100.00;100862.91;5071219;28;20522;-57
2022/12/30 04:57:14;;;;;;;12.98;2.75;;;;;;;3.61;100.00;100860.94;5073173;28;20072;-57
2022/12/30 04:59:43;;;;;;;12.52;3.13;;;;;;;3.62;100.00;100861.81;5070981;28;20045;-56
2022/12/30 05:02:12;;;;;;;14.55;2.50;;;;;;;3.60;100.00;100861.00;5070149;28;20052;-56
2022/12/30 05:04:40;;;;;;;13.63;2.40;;;;;;;3.57;100.00;100863.72;5072298;28;20079;-56
2022/12/30 05:07:08;;;;;;;12.82;2.63;;;;;;;3.54;100.00;100862.94;5072928;28;20040;-57
2022/12/30 05:09:36;;;;;;;12.65;2.70;;;;;;;3.55;100.00;100867.22;5071617;28;20403;-57
2022/12/30 05:12:05;;;;;;;18.63;2.38;;;;;;;3.54;100.00;100859.47;5070293;28;20048;-57
2022/12/30 05:14:33;;;;;;;17.92;3.53;;;;;;;3.53;100.00;100863.84;5071680;28;20491;-57
2022/12/30 05:17:03;;;;;;;17.20;2.45;;;;;;;3.56;100.00;100860.28;5072930;28;20110;-57
2022/12/30 05:19:31;;;;;;;14.00;2.20;;;;;;;3.54;100.00;100847.34;5072716;28;20033;-57
2022/12/30 05:21:59;;;;;;;13.85;2.90;;;;;;;3.58;100.00;100857.63;5072990;28;20447;-57
2022/12/30 05:27:13;;;;;;;15.38;2.78;;;;;;;3.64;100.00;100840.06;5070713;28;20048;-57
2022/12/30 05:29:41;;;;;;;13.38;2.33;;;;;;;3.65;100.00;100835.69;5071300;28;20064;-56
2022/12/30 05:32:11;;;;;;;16.58;2.75;;;;;;;3.66;100.00;100842.59;5071779;28;20508;-57
2022/12/30 05:34:39;;;;;;;13.50;2.80;;;;;;;3.65;100.00;100833.09;5070200;28;20447;-55
2022/12/30 05:37:07;;;;;;;17.92;2.40;;;;;;;3.68;100.00;100832.97;5071274;28;20048;-57
2022/12/30 05:39:35;;;;;;;13.88;2.53;;;;;;;3.72;100.00;100837.16;5071103;28;20048;-56
2022/12/30 05:42:03;;;;;;;12.70;2.38;;;;;;;3.70;100.00;100831.19;5072255;28;20044;-57
2022/12/30 05:44:32;;;;;;;11.93;2.15;;;;;;;3.69;100.00;100827.72;5072187;28;20128;-56
2022/12/30 05:47:00;;;;;;;12.82;2.55;;;;;;;3.68;100.00;100836.44;5072408;28;20086;-56
2022/12/30 05:49:29;;;;;;;11.95;2.67;;;;;;;3.65;100.00;100827.88;5072528;28;20043;-57
2022/12/30 05:51:57;;;;;;;14.80;3.00;;;;;;;3.68;100.00;100823.44;5069702;28;20095;-57
2022/12/30 05:54:25;;;;;;;13.32;3.05;;;;;;;3.68;100.00;100826.03;5069252;28;20135;-57
2022/12/30 05:56:53;;;;;;;16.80;2.95;;;;;;;3.66;100.00;100827.81;5072005;28;20049;-57
2022/12/30 05:59:22;;;;;;;17.95;4.00;;;;;;;3.70;100.00;100831.19;5072360;28;20064;-57
2022/12/30 06:01:50;;;;;;;13.82;2.88;;;;;;;3.68;100.00;100826.03;5072583;28;20047;-57
2022/12/30 06:04:18;;;;;;;18.33;3.30;;;;;;;3.66;100.00;100832.19;5071054;28;20049;-57
2022/12/30 06:06:48;;;;;;;16.23;2.75;;;;;;;3.66;100.00;100816.59;5071304;28;20052;-52
2022/12/30 06:09:16;;;;;;;16.17;2.92;;;;;;;3.68;100.00;100822.56;5075667;28;20044;-51
2022/12/30 06:11:44;;;;;;;14.00;2.97;;;;;;;3.66;100.00;100827.81;5076275;28;20106;-51
2022/12/30 06:14:15;;;;;;;20.20;3.60;;;;;;;3.62;100.00;100828.84;5075845;28;20146;-49
2022/12/30 06:16:43;;;;;;;15.25;2.83;;;;;;;3.59;100.00;100826.38;5076320;28;20361;-52
2022/12/30 06:19:11;;;;;;;13.05;3.20;;;;;;;3.58;100.00;100824.66;5075560;28;20044;-53
2022/12/30 06:21:40;;;;;;;16.25;3.05;;;;;;;3.59;100.00;100823.75;5073095;28;20576;-52
2022/12/30 06:24:09;;;;;;;14.63;3.53;;;;;;;3.58;100.00;100822.06;5073152;28;20051;-53
2022/12/30 06:26:37;;;;;;;13.52;3.30;;;;;;;3.54;100.00;100823.94;5075638;28;20101;-53
2022/12/30 06:29:05;;;;;;;16.67;3.20;;;;;;;3.58;100.00;100821.22;5075854;28;20085;-53
2022/12/30 06:31:34;;;;;;;17.10;3.97;;;;;;;3.58;100.00;100824.66;5075222;28;20049;-48
2022/12/30 06:34:02;;;;;;;16.88;4.03;;;;;;;3.57;100.00;100827.31;5074049;28;20036;-49
2022/12/30 06:36:30;;;;;;;18.10;3.25;;;;;;;3.53;100.00;100824.84;5072210;28;20048;-50
2022/12/30 06:38:58;;;;;;;12.52;2.88;;;;;;;3.57;100.00;100829.91;5072312;28;20063;-50
2022/12/30 06:41:28;;;;;;;14.95;2.78;;;;;;;3.58;100.00;100836.81;5075563;28;20045;-57
2022/12/30 06:43:56;;;;;;;13.55;2.20;;;;;;;3.58;100.00;100827.25;5075783;28;20044;-54
2022/12/30 06:46:24;;;;;;;16.55;2.95;;;;;;;3.56;100.00;100826.47;5075508;28;20135;-54
2022/12/30 06:48:52;;;;;;;14.15;3.28;;;;;;;3.57;100.00;100822.97;5075723;28;20052;-57
2022/12/30 06:51:20;;;;;;;13.23;2.45;;;;;;;3.60;100.00;100824.59;5075600;28;20755;-57
2022/12/30 06:53:49;;;;;;;20.48;2.83;;;;;;;3.58;100.00;100809.06;5075476;28;20098;-50
2022/12/30 06:56:17;;;;;;;18.88;3.72;;;;;;;3.58;100.00;100819.47;5073578;28;20090;-56
2022/12/30 06:58:47;;;;;;;14.20;2.97;;;;;;;3.55;100.00;100807.41;5072970;28;20052;-57
2022/12/30 07:01:15;;;;;;;14.57;2.92;;;;;;;3.57;100.00;100802.16;5074609;28;20529;-57
2022/12/30 07:03:43;;;;;;;15.07;3.00;;;;;;;3.59;100.00;100802.97;5075026;28;20569;-57
2022/12/30 07:06:11;;;;;;;15.27;2.90;;;;;;;3.60;100.00;100799.47;5075257;28;20173;-57
2022/12/30 07:08:40;;;;;;;22.60;4.22;;;;;;;3.61;100.00;100797.69;5075421;28;20434;-56
2022/12/30 07:11:08;;;;;;;21.98;3.20;;;;;;;3.61;100.00;100803.72;5073664;28;20056;-57
2022/12/30 07:13:36;;;;;;;17.02;3.35;;;;;;;3.62;100.00;100782.03;5072803;28;20044;-57
2022/12/30 07:16:06;;;;;;;14.13;2.85;;;;;;;3.67;100.00;100774.06;5073335;28;20097;-57
2022/12/30 07:18:34;;;;;;;13.18;2.67;;;;;;;3.71;100.00;100762.66;5074400;28;20063;-56
2022/12/30 07:21:02;;;;;;;15.65;3.53;;;;;;;3.76;100.00;100755.50;5075085;28;20048;-56
2022/12/30 07:23:30;;;;;;;13.88;3.78;;;;;;;3.77;100.00;100761.56;5073428;28;20450;-55
2022/12/30 07:25:59;;;;;;;13.80;3.20;;;;;;;3.79;100.00;100759.72;5074687;28;20098;-56
2022/12/30 07:28:27;;;;;;;19.55;3.38;;;;;;;3.78;100.00;100758.91;5072915;28;20044;-56
2022/12/30 07:30:56;;;;;;;14.75;2.90;;;;;;;3.81;100.00;100750.13;5072562;28;20123;-57
2022/12/30 07:33:25;;;;;;;13.90;3.08;;;;;;;3.84;100.00;100743.03;5074774;28;20049;-57
2022/12/30 07:35:53;;;;;;;11.05;2.78;;;;;;;3.92;100.00;100734.09;5074993;28;20047;-57
2022/12/30 07:38:21;;;;;;;15.77;2.90;;;;;;;3.91;100.00;100735.84;5075235;28;20463;-57
2022/12/30 07:40:49;;;;;;;16.90;3.05;;;;;;;4.01;100.00;100738.97;5072561;28;20068;-56
2022/12/30 07:43:18;;;;;;;13.05;2.75;;;;;;;3.96;100.00;100738.28;5072153;28;20391;-57
2022/12/30 07:45:46;;;;;;;13.75;3.63;;;;;;;3.98;100.00;100742.53;5074349;28;20090;-57
2022/12/30 07:48:14;;;;;;;13.35;2.90;;;;;;;4.01;100.00;100746.75;5074549;28;20468;-57
2022/12/30 07:50:43;;;;;;;11.40;2.60;;;;;;;4.07;100.00;100738.69;5074380;28;20041;-57
2022/12/30 07:53:11;;;;;;;16.00;3.08;;;;;;;4.05;100.00;100738.75;5074317;28;20450;-57
2022/12/30 07:55:40;;;;;;;13.75;3.03;;;;;;;4.04;100.00;100738.81;5071644;28;20064;-57
2022/12/30 07:58:09;;;;;;;12.30;3.17;;;;;;;4.07;100.00;100734.31;5071849;28;20106;-56
2022/12/30 08:00:37;;;;;;;12.82;2.67;;;;;;;4.10;100.00;100729.94;5074182;28;20040;-57
2022/12/30 08:03:06;;;;;;;11.88;2.88;;;;;;;4.10;100.00;100717.75;5074489;28;20037;-58
2022/12/30 08:05:34;;;;;;;12.45;2.72;;;;;;;4.10;100.00;100711.69;5074043;28;20052;-57
2022/12/30 08:08:04;;;;;;;11.63;2.95;;;;;;;4.11;100.00;100697.78;5070997;28;20074;-57
2022/12/30 08:10:32;;;;;;;14.38;3.15;;;;;;;4.28;100.00;100697.09;5071292;28;20491;-57
2022/12/30 08:13:00;;;;;;;13.05;2.88;;;;;;;4.22;100.00;100688.59;5072819;28;20465;-57
2022/12/30 08:15:28;;;;;;;13.65;2.75;;;;;;;4.25;100.00;100682.44;5073979;28;20048;-57
2022/12/30 08:17:57;;;;;;;20.40;3.38;;;;;;;4.33;100.00;100687.34;5074072;28;20150;-57
2022/12/30 08:20:25;;;;;;;23.13;4.30;;;;;;;4.28;100.00;100684.94;5073784;28;20353;-57
2022/12/30 08:22:53;;;;;;;11.82;3.00;;;;;;;4.31;100.00;100673.50;5073803;28;20041;-58
2022/12/30 08:25:23;;;;;;;11.32;2.58;;;;;;;4.35;100.00;100681.16;5073903;28;20045;-57
2022/12/30 08:27:51;;;;;;;10.70;2.97;;;;;;;4.34;100.00;100689.88;5072799;28;20048;-57
2022/12/30 08:30:19;;;;;;;11.07;2.70;;;;;;;4.38;100.00;100677.59;5070346;28;20399;-56
2022/12/30 08:32:47;;;;;;;12.27;2.35;;;;;;;4.39;100.00;100674.91;5070799;28;20059;-56
2022/12/30 08:35:15;;;;;;;13.23;2.53;;;;;;;4.40;100.00;100668.78;5073371;28;20519;-56
2022/12/30 08:37:43;;;;;;;7.07;2.50;;;;;;;4.44;100.00;100661.69;5073654;28;20049;-57
2022/12/30 08:40:12;;;;;;;8.88;2.40;;;;;;;4.44;100.00;100656.47;5071978;28;20051;-57
2022/12/30 08:42:42;;;;;;;11.32;2.80;;;;;;;4.45;100.00;100650.34;5071081;28;20052;-57
2022/12/30 08:45:11;;;;;;;8.98;2.97;;;;;;;4.48;100.00;100652.00;5070286;28;20063;-56
2022/12/30 08:47:41;;;;;;;13.20;2.88;;;;;;;4.59;100.00;100647.16;5072497;28;20090;-56
2022/12/30 08:50:10;;;;;;;8.80;2.20;;;;;;;4.59;100.00;100641.13;5073461;28;20496;-57
2022/12/30 08:52:38;;;;;;;10.10;2.85;;;;;;;4.59;100.00;100631.53;5073371;28;20064;-58
2022/12/30 08:55:06;;;;;;;10.90;2.30;;;;;;;4.60;100.00;100632.41;5073337;28;20045;-56
2022/12/30 08:57:37;;;;;;;12.07;2.55;;;;;;;4.64;100.00;100620.94;5073230;28;20063;-57
2022/12/30 09:00:08;;;;;;;11.55;2.75;;;;;;;4.66;100.00;100616.47;5073089;28;20048;-57
2022/12/30 09:02:36;;;;;;;11.77;2.40;;;;;;;4.68;100.00;100630.31;5071967;28;20514;-57
2022/12/30 09:05:05;;;;;;;11.63;2.47;;;;;;;4.76;100.00;100625.59;5070237;28;20529;-56
2022/12/30 09:07:33;;;;;;;9.32;2.17;;;;;;;4.75;100.00;100626.50;5071551;28;20055;-58
2022/12/30 09:10:21;;;;;;;11.25;2.33;;;;;;;4.78;100.00;100626.34;5073025;28;20413;-57
2022/12/30 09:12:52;;;;;;;12.32;2.78;;;;;;;4.82;100.00;100616.66;5071632;28;20072;-57
2022/12/30 09:15:22;;;;;;;9.77;2.60;;;;;;;4.84;100.00;100618.28;5072422;28;20350;-57
2022/12/30 09:17:50;;;;;;;9.98;2.40;;;;;;;4.91;100.00;100608.44;5069037;28;20402;-57
2022/12/30 09:20:18;;;;;;;9.45;2.28;;;;;;;4.91;100.00;100601.44;5071623;28;20052;-57
2022/12/30 09:22:51;;;;;;;8.20;1.98;;;;;;;4.99;100.00;100602.84;5072468;28;20044;-57
2022/12/30 09:25:19;;;;;;;7.53;2.05;;;;;;;5.01;100.00;100601.88;5070172;28;20090;-56
2022/12/30 09:27:47;;;;;;;10.52;2.25;;;;;;;5.05;100.00;100593.00;5070796;28;20110;-57
2022/12/30 09:30:16;;;;;;;6.97;2.20;;;;;;;5.13;100.00;100584.00;5072890;28;20083;-57
2022/12/30 09:32:45;;;;;;;9.55;3.10;;;;;;;5.17;100.00;100578.53;5072969;28;20102;-57
2022/12/30 09:35:13;;;;;;;12.18;2.58;;;;;;;5.16;100.00;100576.03;5072340;28;20040;-57
2022/12/30 09:37:41;;;;;;;12.27;2.15;;;;;;;5.21;100.00;100577.47;5072648;28;20049;-57
2022/12/30 09:40:14;;;;;;;9.65;1.83;;;;;;;5.28;100.00;100579.81;5070911;28;20044;-57
2022/12/30 09:45:41;;;;;;;7.70;1.85;;;;;;;5.39;100.00;100580.16;5065252;28;20056;-57
2022/12/30 09:48:18;;;;;;;7.82;1.70;;;;;;;5.38;100.00;100575.84;5072789;28;20068;-57
2022/12/30 09:50:50;;;;;;;5.97;1.95;;;;;;;5.44;100.00;100570.34;5072773;28;20072;-57
2022/12/30 09:53:25;;;;;;;6.40;1.65;;;;;;;5.42;100.00;100569.56;5072650;28;20074;-57
2022/12/30 09:56:02;;;;;;;6.45;1.58;;;;;;;5.49;100.00;100560.50;5072625;28;20041;-57
2022/12/30 09:58:34;;;;;;;9.88;1.70;;;;;;;5.47;100.00;100557.16;5072571;28;20036;-58
2022/12/30 10:01:12;;;;;;;8.13;1.60;;;;;;;5.48;100.00;100558.84;5072439;28;20060;-58
2022/12/30 10:03:42;;;;;;;6.53;1.30;;;;;;;5.55;100.00;100564.63;5072670;28;20067;-58
2022/12/30 10:06:32;;;;;;;10.55;1.88;;;;;;;5.57;100.00;100558.38;5072539;28;20414;-58
2022/12/30 10:09:41;;;;;;;8.52;1.63;;;;;;;5.57;100.00;100540.09;5070447;28;20510;-58
2022/12/30 10:12:38;;;;;;;8.07;1.98;;;;;;;5.61;100.00;100538.22;5009370;28;20041;-58
2022/12/30 10:15:19;;;;;;;8.57;2.03;;;;;;;5.64;100.00;100524.16;5072504;28;20487;-58
2022/12/30 10:18:09;;;;;;;5.82;1.90;;;;;;;5.71;100.00;100528.16;5072382;28;20449;-58
2022/12/30 10:20:52;;;;;;;7.70;1.95;;;;;;;5.76;100.00;100505.28;5063623;28;20082;-58
2022/12/30 10:23:39;;;;;;;6.03;1.88;;;;;;;5.75;100.00;100509.69;5072480;28;20091;-57
2022/12/30 10:26:13;;;;;;;12.57;2.22;;;;;;;5.82;100.00;100502.38;5072505;28;20361;-58
2022/12/30 10:28:46;;;;;;;6.13;1.80;;;;;;;5.84;100.00;100500.53;5072562;28;20061;-58
2022/12/30 10:31:18;;;;;;;;;;;;;;;5.89;100.00;100489.84;5072873;28;20048;-58
2022/12/30 10:33:50;;;;;;;7.65;1.67;;;;;;;6.05;100.00;100474.28;5071107;28;19927;-59
2022/12/30 10:36:24;;;;;;;6.20;1.60;;;;;;;6.02;100.00;100470.03;5070966;28;20044;-58
2022/12/30 10:39:00;;;;;;;9.15;1.75;;;;;;;6.04;100.00;100473.44;5072210;28;20049;-59
2022/12/30 10:41:42;;;;;;;8.13;1.85;;;;;;;6.11;100.00;100460.91;5071018;28;20052;-59
2022/12/30 10:44:19;;;;;;;8.07;1.77;;;;;;;6.12;100.00;100459.97;5070154;28;20130;-58
2022/12/30 10:47:26;;;;;;;7.63;2.00;;;;;;;6.20;100.00;100434.31;5071313;28;20061;-59
2022/12/30 10:50:11;;;;;;;5.07;1.80;;;;;;;6.31;100.00;100425.88;5072178;28;20044;-59
2022/12/30 10:52:41;;;;;;;6.65;1.67;;;;;;;6.32;100.00;100414.50;5072575;28;20039;-59
2022/12/30 10:55:22;;;;;;;8.00;1.50;;;;;;;6.27;100.00;100416.53;5074476;28;20044;-59
2022/12/30 10:58:00;;;;;;;9.80;1.48;;;;;;;6.33;100.00;100404.94;5074368;28;20551;-58
2022/12/30 11:00:32;;;;;;;5.85;1.30;;;;;;;6.33;100.00;100397.09;5075632;28;20048;-59
2022/12/30 11:03:05;;;;;;;8.73;2.17;;;;;;;6.33;100.00;100386.63;5075144;28;20041;-59
2022/12/30 11:05:34;;;;;;;;;;;;;;;6.38;100.00;100377.63;5074342;28;20536;-59
2022/12/30 11:08:07;;;;;;;5.90;2.10;;;;;;;6.36;100.00;100363.78;5073988;28;19994;-59
2022/12/30 11:10:35;;;;;;;9.90;1.60;;;;;;;6.36;100.00;100355.13;5075479;28;20045;-59
2022/12/30 11:15:55;;;;;;;8.63;1.98;;;;;;;6.45;100.00;100331.09;5075096;28;20040;-59
2022/12/30 11:18:28;;;;;;;5.57;1.38;;;;;;;6.49;100.00;100322.16;5075293;28;20154;-59
2022/12/30 11:20:58;;;;;;;6.95;1.40;;;;;;;6.47;100.00;100312.72;5075498;28;20434;-59
2022/12/30 11:23:32;;;;;;;8.82;1.42;;;;;;;6.49;100.00;100313.47;5075208;28;20033;-60
2022/12/30 11:26:02;;;;;;;5.53;1.52;;;;;;;6.58;100.00;100299.88;5075357;28;20045;-59
2022/12/30 11:28:36;;;;;;;5.55;1.40;;;;;;;6.57;100.00;100292.97;5075081;28;20098;-59
2022/12/30 11:31:08;;;;;;;9.30;1.40;;;;;;;6.58;100.00;100285.03;5075144;28;20441;-59
2022/12/30 11:33:39;;;;;;;7.18;1.67;;;;;;;6.61;100.00;100281.41;5074658;28;20487;-59
2022/12/30 11:36:15;;;;;;;4.57;1.10;;;;;;;6.72;100.00;100260.75;5073595;28;20057;-59
2022/12/30 11:38:46;;;;;;;6.82;1.20;;;;;;;6.72;100.00;100249.44;5075203;28;20070;-59
2022/12/30 11:41:24;;;;;;;8.45;1.73;;;;;;;6.74;100.00;100232.75;5075116;28;20040;-59
2022/12/30 11:44:06;;;;;;;6.43;1.40;;;;;;;6.73;100.00;100217.97;5074696;28;20040;-59
2022/12/30 11:46:36;;;;;;;;;;;;;;;6.76;100.00;100216.97;5075216;28;20083;-59
2022/12/30 11:49:07;;;;;;;14.05;1.63;;;;;;;6.78;100.00;100204.66;5074920;28;20011;-59
2022/12/30 11:51:43;;;;;;;7.03;1.15;;;;;;;6.77;100.00;100190.72;5074562;28;20045;-59
2022/12/30 11:54:22;;;;;;;6.65;1.20;;;;;;;6.83;100.00;100189.56;5074663;28;20048;-59
2022/12/30 11:56:55;;;;;;;4.78;1.40;;;;;;;6.87;100.00;100183.22;5074412;28;20056;-59
2022/12/30 11:59:27;;;;;;;5.63;1.40;;;;;;;6.87;100.00;100180.59;5074758;28;20119;-59
2022/12/30 12:01:58;;;;;;;5.93;1.58;;;;;;;6.85;100.00;100171.97;5074530;28;20063;-59
2022/12/30 12:04:33;;;;;;;9.05;1.70;;;;;;;6.89;100.00;100176.09;5073703;28;20078;-59
2022/12/30 12:07:03;;;;;;;5.40;1.25;;;;;;;6.90;100.00;100158.66;5072228;28;20062;-59
2022/12/30 12:09:41;;;;;;;9.67;1.53;;;;;;;6.89;100.00;100151.75;5073507;28;20575;-59
2022/12/30 12:12:14;;;;;;;9.05;1.60;;;;;;;6.88;100.00;100147.44;5074212;28;20110;-59
2022/12/30 12:14:59;;;;;;;5.88;1.63;;;;;;;6.92;100.00;100143.69;5073829;28;20802;-58
2022/12/30 12:17:45;;;;;;;4.30;1.20;;;;;;;7.03;100.00;100132.59;5071811;28;20391;-59
2022/12/30 12:20:22;;;;;;;5.22;1.27;;;;;;;7.05;100.00;100121.09;5073502;28;20403;-59
2022/12/30 12:23:07;;;;;;;5.75;1.35;;;;;;;7.05;100.00;100120.28;5074059;28;20400;-61
2022/12/30 12:25:43;;;;;;;7.80;1.92;;;;;;;7.10;100.00;100102.50;5074171;28;20057;-61
2022/12/30 12:28:13;;;;;;;8.45;1.52;;;;;;;7.09;100.00;100099.06;5074013;28;20055;-59
2022/12/30 12:31:10;;;;;;;5.97;1.33;;;;;;;7.19;100.00;100080.19;5074082;28;20052;-61
2022/12/30 12:33:41;;;;;;;7.82;2.15;;;;;;;7.19;100.00;100080.19;5072723;28;20044;-62
2022/12/30 12:36:20;;;;;;;9.32;1.90;;;;;;;7.23;100.00;100077.28;5073310;28;20048;-62